sensor_id;sensor_type;location;lat;lon;timestamp;pressure;altitude;pressure_sealevel;temperature;humidity
17950;BME280;9100;48.700;9.316;2022-09-03T00:00:48;97367.9;;;18.91;68.097
17950;BME280;9100;48.700;9.316;2022-09-03T00:01:47;97367.1;;;18.91;68.105
17950;BME280;9100;48.700;9.316;2022-09-03T00:02:39;97366.3;;;18.9;68.235
17950;BME280;9100;48.700;9.316;2022-09-03T00:02:47;97368.9;;;18.9;68.29
17950;BME280;9100;48.700;9.316;2022-09-03T00:03:48;97364.5;;;18.91;68.431
17950;BME280;9100;48.700;9.316;2022-09-03T00:04:48;97371.3;;;18.92;68.282
17950;BME280;9100;48.700;9.316;2022-09-03T00:05:46;97365.5;;;18.89;68.312
17950;BME280;9100;48.700;9.316;2022-09-03T00:06:47;97363.7;;;18.9;68.269
17950;BME280;9100;48.700;9.316;2022-09-03T00:07:39;97366.3;;;18.9;68.409
17950;BME280;9100;48.700;9.316;2022-09-03T00:07:48;97368.9;;;18.9;68.42
17950;BME280;9100;48.700;9.316;2022-09-03T00:08:47;97367.3;;;18.89;68.473
17950;BME280;9100;48.700;9.316;2022-09-03T00:09:47;97362.90000000001;;;18.89;68.333
17950;BME280;9100;48.700;9.316;2022-09-03T00:10:48;97366.5;;;18.88;68.211
17950;BME280;9100;48.700;9.316;2022-09-03T00:11:48;97365.8;;;18.88;68.318
17950;BME280;9100;48.700;9.316;2022-09-03T00:12:39;97356.4;;;18.87;68.523
17950;BME280;9100;48.700;9.316;2022-09-03T00:12:46;97358.2;;;18.86;68.403
17950;BME280;9100;48.700;9.316;2022-09-03T00:13:49;97358.2;;;18.86;68.436
17950;BME280;9100;48.700;9.316;2022-09-03T00:14:47;97355.7;;;18.86;68.501
17950;BME280;9100;48.700;9.316;2022-09-03T00:15:46;97355.7;;;18.86;68.501
17950;BME280;9100;48.700;9.316;2022-09-03T00:16:47;97353.3;;;18.85;68.467
17950;BME280;9100;48.700;9.316;2022-09-03T00:17:38;97355.9;;;18.85;68.651
17950;BME280;9100;48.700;9.316;2022-09-03T00:17:46;97342.1;;;18.84;68.595
17950;BME280;9100;48.700;9.316;2022-09-03T00:19:50;97335.2;;;18.85;68.737
17950;BME280;9100;48.700;9.316;2022-09-03T00:20:48;97349.90000000001;;;18.84;68.66
17950;BME280;9100;48.700;9.316;2022-09-03T00:21:47;97338.8;;;18.84;68.832
17950;BME280;9100;48.700;9.316;2022-09-03T00:22:38;97349.90000000001;;;18.84;68.953
17950;BME280;9100;48.700;9.316;2022-09-03T00:22:47;97346.5;;;18.84;68.973
17950;BME280;9100;48.700;9.316;2022-09-03T00:23:46;97346.3;;;18.85;68.813
17950;BME280;9100;48.700;9.316;2022-09-03T00:24:46;97350.5;;;18.86;68.771
17950;BME280;9100;48.700;9.316;2022-09-03T00:25:48;97352.3;;;18.86;68.727
17950;BME280;9100;48.700;9.316;2022-09-03T00:26:47;97354.1;;;18.85;68.933
17950;BME280;9100;48.700;9.316;2022-09-03T00:27:38;97350.7;;;18.85;69.02
17950;BME280;9100;48.700;9.316;2022-09-03T00:27:47;97352.3;;;18.86;68.933
17950;BME280;9100;48.700;9.316;2022-09-03T00:28:49;97352.3;;;18.86;68.597
17950;BME280;9100;48.700;9.316;2022-09-03T00:29:48;97346.3;;;18.85;68.737
17950;BME280;9100;48.700;9.316;2022-09-03T00:30:49;97346.5;;;18.84;68.215
17950;BME280;9100;48.700;9.316;2022-09-03T00:31:47;97349.1;;;18.84;68.323
17950;BME280;9100;48.700;9.316;2022-09-03T00:32:39;97345.7;;;18.83;68.377
17950;BME280;9100;48.700;9.316;2022-09-03T00:32:47;97346.5;;;18.84;68.398
17950;BME280;9100;48.700;9.316;2022-09-03T00:33:46;97346.5;;;18.84;68.464
17950;BME280;9100;48.700;9.316;2022-09-03T00:34:47;97343.9;;;18.84;68.528
17950;BME280;9100;48.700;9.316;2022-09-03T00:35:47;97347.6;;;18.83;68.388
17950;BME280;9100;48.700;9.316;2022-09-03T00:36:46;97351.2;;;18.82;68.428
17950;BME280;9100;48.700;9.316;2022-09-03T00:37:38;97350.2;;;18.83;68.496
17950;BME280;9100;48.700;9.316;2022-09-03T00:37:46;97346.8;;;18.82;68.495
17950;BME280;9100;48.700;9.316;2022-09-03T00:38:46;97342.4;;;18.83;68.518
17950;BME280;9100;48.700;9.316;2022-09-03T00:39:46;97346;;;18.82;68.504
17950;BME280;9100;48.700;9.316;2022-09-03T00:40:51;97352;;;18.82;68.7
17950;BME280;9100;48.700;9.316;2022-09-03T00:41:49;97347.79999999999;;;18.81;68.883
17950;BME280;9100;48.700;9.316;2022-09-03T00:42:39;97360.7;;;18.81;68.482
17950;BME280;9100;48.700;9.316;2022-09-03T00:42:48;97348.8;;;18.8;68.535
17950;BME280;9100;48.700;9.316;2022-09-03T00:43:51;97348.6;;;18.82;68.699
17950;BME280;9100;48.700;9.316;2022-09-03T00:44:52;97346;;;18.82;68.938
17950;BME280;9100;48.700;9.316;2022-09-03T00:45:48;97356.4;;;18.82;68.916
17950;BME280;9100;48.700;9.316;2022-09-03T00:46:48;97351.2;;;18.82;68.786
17950;BME280;9100;48.700;9.316;2022-09-03T00:47:40;97352.20000000001;;;18.81;68.916
17950;BME280;9100;48.700;9.316;2022-09-03T00:47:48;97357.4;;;18.81;68.959
17950;BME280;9100;48.700;9.316;2022-09-03T00:48:51;97356.4;;;18.82;69.23
17950;BME280;9100;48.700;9.316;2022-09-03T00:49:50;97349.40000000001;;;18.82;69.546
17950;BME280;9100;48.700;9.316;2022-09-03T00:50:51;97361.5;;;18.82;69.425
17950;BME280;9100;48.700;9.316;2022-09-03T00:51:48;97348.8;;;18.8;69.435
17950;BME280;9100;48.700;9.316;2022-09-03T00:52:40;97353.2;;;18.8;69.39
17950;BME280;9100;48.700;9.316;2022-09-03T00:52:50;97348;;;18.8;69.433
17950;BME280;9100;48.700;9.316;2022-09-03T00:53:48;97351.4;;;18.8;69.749
17950;BME280;9100;48.700;9.316;2022-09-03T00:54:49;97347.29999999999;;;18.79;69.563
17950;BME280;9100;48.700;9.316;2022-09-03T00:55:48;97341.5;;;18.77;69.819
17950;BME280;9100;48.700;9.316;2022-09-03T00:56:47;97344.1;;;18.77;69.917
17950;BME280;9100;48.700;9.316;2022-09-03T00:57:42;97348.5;;;18.77;70.035
17950;BME280;9100;48.700;9.316;2022-09-03T00:57:49;97347.7;;;18.76;70.144
17950;BME280;9100;48.700;9.316;2022-09-03T00:58:51;97351.09999999999;;;18.77;70.36
17950;BME280;9100;48.700;9.316;2022-09-03T00:59:47;97347.7;;;18.76;69.916
17950;BME280;9100;48.700;9.316;2022-09-03T01:00:46;97353.9;;;18.75;70.022
17950;BME280;9100;48.700;9.316;2022-09-03T01:01:47;97352.9;;;18.76;70.403
17950;BME280;9100;48.700;9.316;2022-09-03T01:02:42;97353.7;;;18.77;70.208
17950;BME280;9100;48.700;9.316;2022-09-03T01:02:50;97352.09999999999;;;18.76;70.142
17950;BME280;9100;48.700;9.316;2022-09-03T01:03:49;97352.09999999999;;;18.76;70.391
17950;BME280;9100;48.700;9.316;2022-09-03T01:04:50;97352.9;;;18.76;70.512
17950;BME280;9100;48.700;9.316;2022-09-03T01:05:52;97349.3;;;18.77;70.633
17950;BME280;9100;48.700;9.316;2022-09-03T01:06:48;97351.9;;;18.77;70.535
17950;BME280;9100;48.700;9.316;2022-09-03T01:07:39;97343.6;;;18.75;70.391
17950;BME280;9100;48.700;9.316;2022-09-03T01:07:48;97346.90000000001;;;18.76;70.521
17950;BME280;9100;48.700;9.316;2022-09-03T01:09:06;97344.3;;;18.76;70.435
17950;BME280;9100;48.700;9.316;2022-09-03T01:09:49;97344.6;;;18.74;70.194
17950;BME280;9100;48.700;9.316;2022-09-03T01:10:49;97343.6;;;18.75;70.315
17950;BME280;9100;48.700;9.316;2022-09-03T01:11:49;97339.59999999999;;;18.73;70.387
17950;BME280;9100;48.700;9.316;2022-09-03T01:12:39;97341.4;;;18.72;70.408
17950;BME280;9100;48.700;9.316;2022-09-03T01:12:48;97347.40000000001;;;18.73;70.311
17950;BME280;9100;48.700;9.316;2022-09-03T01:13:47;97343.8;;;18.74;70.518
17950;BME280;9100;48.700;9.316;2022-09-03T01:14:50;97341.4;;;18.72;70.517
17950;BME280;9100;48.700;9.316;2022-09-03T01:15:48;97337.3;;;18.71;70.61
17950;BME280;9100;48.700;9.316;2022-09-03T01:16:47;97342.7;;;18.7;70.739
17950;BME280;9100;48.700;9.316;2022-09-03T01:17:42;97337.5;;;18.7;70.642
17950;BME280;9100;48.700;9.316;2022-09-03T01:17:50;97343.5;;;18.7;70.719
17950;BME280;9100;48.700;9.316;2022-09-03T01:18:47;97347.90000000001;;;18.7;70.663
17950;BME280;9100;48.700;9.316;2022-09-03T01:19:51;97340.09999999999;;;18.7;70.761
17950;BME280;9100;48.700;9.316;2022-09-03T01:20:52;97345.6;;;18.68;70.998
17950;BME280;9100;48.700;9.316;2022-09-03T01:21:51;97340.4;;;18.68;71.236
17950;BME280;9100;48.700;9.316;2022-09-03T01:22:46;97346.6;;;18.67;71.081
17950;BME280;9100;48.700;9.316;2022-09-03T01:22:53;97337;;;18.68;71.224
17950;BME280;9100;48.700;9.316;2022-09-03T01:23:51;97344.8;;;18.68;71.505
17950;BME280;9100;48.700;9.316;2022-09-03T01:24:53;97344;;;18.67;71.243
17950;BME280;9100;48.700;9.316;2022-09-03T01:25:49;97340;;;18.65;71.381
17950;BME280;9100;48.700;9.316;2022-09-03T01:26:51;97337.5;;;18.65;71.436
17950;BME280;9100;48.700;9.316;2022-09-03T01:27:40;97332.5;;;18.63;71.649
17950;BME280;9100;48.700;9.316;2022-09-03T01:27:55;97340.8;;;18.65;71.674
17950;BME280;9100;48.700;9.316;2022-09-03T01:28:48;97335.90000000001;;;18.64;71.629
17950;BME280;9100;48.700;9.316;2022-09-03T01:29:47;97335.1;;;18.63;71.66
17950;BME280;9100;48.700;9.316;2022-09-03T01:30:47;97336.7;;;18.64;71.878
17950;BME280;9100;48.700;9.316;2022-09-03T01:31:49;97341.3;;;18.62;72.103
17950;BME280;9100;48.700;9.316;2022-09-03T01:32:39;97345.7;;;18.62;72.308
17950;BME280;9100;48.700;9.316;2022-09-03T01:32:47;97344.7;;;18.63;72.267
17950;BME280;9100;48.700;9.316;2022-09-03T01:33:48;97352.5;;;18.63;72.039
17950;BME280;9100;48.700;9.316;2022-09-03T01:34:48;97353;;;18.65;72.193
17950;BME280;9100;48.700;9.316;2022-09-03T01:35:47;97343.7;;;18.64;72.452
17950;BME280;9100;48.700;9.316;2022-09-03T01:36:48;97347.29999999999;;;18.63;72.353
17950;BME280;9100;48.700;9.316;2022-09-03T01:37:40;97346.5;;;18.62;72.546
17950;BME280;9100;48.700;9.316;2022-09-03T01:37:50;97346.3;;;18.64;72.614
17950;BME280;9100;48.700;9.316;2022-09-03T01:38:48;97348.8;;;18.64;72.517
17950;BME280;9100;48.700;9.316;2022-09-03T01:39:50;97343.7;;;18.64;72.452
17950;BME280;9100;48.700;9.316;2022-09-03T01:40:49;97349.90000000001;;;18.63;72.526
17950;BME280;9100;48.700;9.316;2022-09-03T01:41:47;97349.90000000001;;;18.63;72.635
17950;BME280;9100;48.700;9.316;2022-09-03T01:42:40;97354;;;18.64;72.755
17950;BME280;9100;48.700;9.316;2022-09-03T01:42:54;97354;;;18.64;72.723
17950;BME280;9100;48.700;9.316;2022-09-03T01:43:47;97357.2;;;18.66;72.802
17950;BME280;9100;48.700;9.316;2022-09-03T01:44:51;97353;;;18.65;72.931
17950;BME280;9100;48.700;9.316;2022-09-03T01:45:50;97358.7;;;18.67;73.14
17950;BME280;9100;48.700;9.316;2022-09-03T01:46:47;97356.4;;;18.65;73.223
17950;BME280;9100;48.700;9.316;2022-09-03T01:47:41;97350.2;;;18.66;73.257
17950;BME280;9100;48.700;9.316;2022-09-03T01:47:48;97352.8;;;18.66;73.354
17950;BME280;9100;48.700;9.316;2022-09-03T01:48:48;97352.8;;;18.66;73.191
17950;BME280;9100;48.700;9.316;2022-09-03T01:49:48;97351.2;;;18.65;73.504
17950;BME280;9100;48.700;9.316;2022-09-03T01:50:47;97351.2;;;18.65;73.721
17950;BME280;9100;48.700;9.316;2022-09-03T01:51:46;97355.6;;;18.65;73.959
17950;BME280;9100;48.700;9.316;2022-09-03T01:52:40;97353;;;18.65;74.089
17950;BME280;9100;48.700;9.316;2022-09-03T01:52:49;97358.7;;;18.67;74.146
17950;BME280;9100;48.700;9.316;2022-09-03T01:53:57;97353.5;;;18.67;74.233
17950;BME280;9100;48.700;9.316;2022-09-03T01:54:48;97361.90000000001;;;18.69;74.562
17950;BME280;9100;48.700;9.316;2022-09-03T01:55:51;97358.5;;;18.68;74.843
17950;BME280;9100;48.700;9.316;2022-09-03T01:56:52;97357.5;;;18.69;74.768
17950;BME280;9100;48.700;9.316;2022-09-03T01:57:39;97359.3;;;18.69;74.746
17950;BME280;9100;48.700;9.316;2022-09-03T01:57:48;97355.9;;;18.68;74.659
17950;BME280;9100;48.700;9.316;2022-09-03T01:58:47;97358.3;;;18.7;74.39
17950;BME280;9100;48.700;9.316;2022-09-03T01:59:47;97356.7;;;18.69;74.519
17950;BME280;9100;48.700;9.316;2022-09-03T02:00:48;97360.29999999999;;;18.68;74.701
17950;BME280;9100;48.700;9.316;2022-09-03T02:01:48;97357.9;;;18.66;74.741
17950;BME280;9100;48.700;9.316;2022-09-03T02:02:38;97357.2;;;18.66;74.763
17950;BME280;9100;48.700;9.316;2022-09-03T02:02:47;97363.9;;;18.67;74.818
17950;BME280;9100;48.700;9.316;2022-09-03T02:03:46;97357.2;;;18.66;74.697
17950;BME280;9100;48.700;9.316;2022-09-03T02:04:54;97357.2;;;18.66;75.163
17950;BME280;9100;48.700;9.316;2022-09-03T02:05:46;97358.2;;;18.65;75.054
17950;BME280;9100;48.700;9.316;2022-09-03T02:06:46;97366.2;;;18.63;75.158
17950;BME280;9100;48.700;9.316;2022-09-03T02:07:39;97358.4;;;18.63;75.245
17950;BME280;9100;48.700;9.316;2022-09-03T02:07:47;97358.6;;;18.62;75.309
17950;BME280;9100;48.700;9.316;2022-09-03T02:08:46;97367.2;;;18.62;75.103
17950;BME280;9100;48.700;9.316;2022-09-03T02:09:46;97362;;;18.62;75.146
17950;BME280;9100;48.700;9.316;2022-09-03T02:10:47;97361.2;;;18.62;75.309
17950;BME280;9100;48.700;9.316;2022-09-03T02:11:48;97369.8;;;18.62;75.85
17950;BME280;9100;48.700;9.316;2022-09-03T02:12:39;97357.6;;;18.63;76.144
17950;BME280;9100;48.700;9.316;2022-09-03T02:12:47;97367;;;18.64;76.167
17950;BME280;9100;48.700;9.316;2022-09-03T02:13:47;97364.4;;;18.64;76.59
17950;BME280;9100;48.700;9.316;2022-09-03T02:14:46;97360.5;;;18.66;77.427
17950;BME280;9100;48.700;9.316;2022-09-03T02:15:47;97365.20000000001;;;18.64;78.247
17950;BME280;9100;48.700;9.316;2022-09-03T02:16:46;97359.2;;;18.64;78.388
17950;BME280;9100;48.700;9.316;2022-09-03T02:17:38;97362.8;;;18.63;78.798
17950;BME280;9100;48.700;9.316;2022-09-03T02:17:47;97365.9;;;18.65;78.866
17950;BME280;9100;48.700;9.316;2022-09-03T02:18:47;97370.4;;;18.64;79.103
17950;BME280;9100;48.700;9.316;2022-09-03T02:19:46;97362.59999999999;;;18.64;79.645
17950;BME280;9100;48.700;9.316;2022-09-03T02:20:46;97367;;;18.64;80.11
17950;BME280;9100;48.700;9.316;2022-09-03T02:21:48;97377.3;;;18.64;80.445
17950;BME280;9100;48.700;9.316;2022-09-03T02:22:38;97372.40000000001;;;18.62;80.604
17950;BME280;9100;48.700;9.316;2022-09-03T02:22:46;97371.6;;;18.62;80.583
17950;BME280;9100;48.700;9.316;2022-09-03T02:23:46;97369.8;;;18.62;80.41
17950;BME280;9100;48.700;9.316;2022-09-03T02:24:46;97369;;;18.62;80.421
17950;BME280;9100;48.700;9.316;2022-09-03T02:25:47;97366.4;;;18.62;80.681
17950;BME280;9100;48.700;9.316;2022-09-03T02:26:46;97370;;;18.61;80.137
17950;BME280;9100;48.700;9.316;2022-09-03T02:27:38;97366.9;;;18.59;80.231
17950;BME280;9100;48.700;9.316;2022-09-03T02:27:46;97374.40000000001;;;18.6;80.211
17950;BME280;9100;48.700;9.316;2022-09-03T02:28:46;97365.9;;;18.6;81.164
17950;BME280;9100;48.700;9.316;2022-09-03T02:29:46;97363.5;;;18.58;80.728
17950;BME280;9100;48.700;9.316;2022-09-03T02:30:46;97374.90000000001;;;18.57;80.141
17950;BME280;9100;48.700;9.316;2022-09-03T02:31:46;97371.5;;;18.57;80.421
17950;BME280;9100;48.700;9.316;2022-09-03T02:32:38;97379.3;;;18.57;80.778
17950;BME280;9100;48.700;9.316;2022-09-03T02:32:46;97379.3;;;18.57;80.821
17950;BME280;9100;48.700;9.316;2022-09-03T02:33:47;97369.7;;;18.57;81.094
17950;BME280;9100;48.700;9.316;2022-09-03T02:34:46;97374.1;;;18.57;80.442
17950;BME280;9100;48.700;9.316;2022-09-03T02:35:46;97371;;;18.55;79.897
17950;BME280;9100;48.700;9.316;2022-09-03T02:36:46;97367.8;;;18.53;79.84
17950;BME280;9100;48.700;9.316;2022-09-03T02:37:38;97362.09999999999;;;18.51;79.695
17950;BME280;9100;48.700;9.316;2022-09-03T02:37:46;97319.2;;;18.21;79.664
17950;BME280;9100;48.700;9.316;2022-09-03T02:38:46;97366.3;;;18.52;79.567
17950;BME280;9100;48.700;9.316;2022-09-03T02:39:46;97357.1;;;18.49;79.348
17950;BME280;9100;48.700;9.316;2022-09-03T02:40:46;97366.7;;;18.49;78.848
17950;BME280;9100;48.700;9.316;2022-09-03T02:41:49;97369.5;;;18.47;78.803
17950;BME280;9100;48.700;9.316;2022-09-03T02:42:38;97365.59999999999;;;18.45;78.992
17950;BME280;9100;48.700;9.316;2022-09-03T02:42:46;97363;;;18.45;79.067
17950;BME280;9100;48.700;9.316;2022-09-03T02:43:47;97358.90000000001;;;18.43;79.022
17950;BME280;9100;48.700;9.316;2022-09-03T02:44:47;97367.6;;;18.42;79.043
17950;BME280;9100;48.700;9.316;2022-09-03T02:45:47;97367.6;;;18.42;79.422
17950;BME280;9100;48.700;9.316;2022-09-03T02:46:47;97362.7;;;18.41;79.277
17950;BME280;9100;48.700;9.316;2022-09-03T02:47:38;97364.5;;;18.4;79.635
17950;BME280;9100;48.700;9.316;2022-09-03T02:47:46;97367.1;;;18.4;79.646
17950;BME280;9100;48.700;9.316;2022-09-03T02:48:46;97364.3;;;18.42;79.647
17950;BME280;9100;48.700;9.316;2022-09-03T02:49:46;97358.5;;;18.4;79.817
17950;BME280;9100;48.700;9.316;2022-09-03T02:50:46;97357;;;18.39;79.88
17950;BME280;9100;48.700;9.316;2022-09-03T02:51:46;97360.6;;;18.38;79.878
17950;BME280;9100;48.700;9.316;2022-09-03T02:52:38;97363.4;;;18.36;79.854
17950;BME280;9100;48.700;9.316;2022-09-03T02:52:46;97353;;;18.36;79.877
17950;BME280;9100;48.700;9.316;2022-09-03T02:53:46;97352;;;18.37;80.03
17950;BME280;9100;48.700;9.316;2022-09-03T02:54:46;97362.59999999999;;;18.36;80.026
17950;BME280;9100;48.700;9.316;2022-09-03T02:55:46;97362.90000000001;;;18.34;79.915
17950;BME280;9100;48.700;9.316;2022-09-03T02:56:46;97365.9;;;18.31;80.203
17950;BME280;9100;48.700;9.316;2022-09-03T02:57:38;97370.3;;;18.31;80.354
17950;BME280;9100;48.700;9.316;2022-09-03T02:57:46;97365.09999999999;;;18.31;80.364
17950;BME280;9100;48.700;9.316;2022-09-03T02:58:46;97363.59999999999;;;18.3;80.405
17950;BME280;9100;48.700;9.316;2022-09-03T02:59:46;97364.8;;;18.27;80.25
17950;BME280;9100;48.700;9.316;2022-09-03T03:00:46;97373.6;;;18.26;80.128
17950;BME280;9100;48.700;9.316;2022-09-03T03:01:46;97364.5;;;18.24;80.307
17950;BME280;9100;48.700;9.316;2022-09-03T03:02:38;97376.70000000001;;;18.23;80.241
17950;BME280;9100;48.700;9.316;2022-09-03T03:02:46;97373.29999999999;;;18.23;80.241
17950;BME280;9100;48.700;9.316;2022-09-03T03:03:46;97371.5;;;18.23;80.393
17950;BME280;9100;48.700;9.316;2022-09-03T03:04:46;97370.9;;;18.21;80.595
17950;BME280;9100;48.700;9.316;2022-09-03T03:05:47;97366.7;;;18.2;80.939
17950;BME280;9100;48.700;9.316;2022-09-03T03:06:46;97373;;;18.19;81.229
17950;BME280;9100;48.700;9.316;2022-09-03T03:07:38;97372.40000000001;;;18.17;81.476
17950;BME280;9100;48.700;9.316;2022-09-03T03:07:46;97370.4;;;18.19;81.555
17950;BME280;9100;48.700;9.316;2022-09-03T03:08:46;97377.3;;;18.19;82.063
17950;BME280;9100;48.700;9.316;2022-09-03T03:09:46;97371.40000000001;;;18.18;82.462
17950;BME280;9100;48.700;9.316;2022-09-03T03:10:46;97375;;;18.17;82.925
17950;BME280;9100;48.700;9.316;2022-09-03T03:11:46;97376.8;;;18.17;83.163
17950;BME280;9100;48.700;9.316;2022-09-03T03:12:38;97376.3;;;18.15;82.943
17950;BME280;9100;48.700;9.316;2022-09-03T03:12:46;97377;;;18.15;82.867
17950;BME280;9100;48.700;9.316;2022-09-03T03:13:46;97372.90000000001;;;18.14;82.692
17950;BME280;9100;48.700;9.316;2022-09-03T03:14:46;97370.3;;;18.14;82.931
17950;BME280;9100;48.700;9.316;2022-09-03T03:15:46;97369.5;;;18.14;83.297
17950;BME280;9100;48.700;9.316;2022-09-03T03:16:46;97370.8;;;18.11;83.259
17950;BME280;9100;48.700;9.316;2022-09-03T03:17:38;97368.6;;;18.08;83.233
17950;BME280;9100;48.700;9.316;2022-09-03T03:17:46;97376.2;;;18.1;83.332
17950;BME280;9100;48.700;9.316;2022-09-03T03:18:46;97377.20000000001;;;18.09;83.536
17950;BME280;9100;48.700;9.316;2022-09-03T03:19:46;97325.7;;;17.79;83.847
17950;BME280;9100;48.700;9.316;2022-09-03T03:20:46;97366.5;;;18.05;83.745
17950;BME280;9100;48.700;9.316;2022-09-03T03:21:47;97372.7;;;18.04;83.777
17950;BME280;9100;48.700;9.316;2022-09-03T03:22:38;97367;;;18.02;84.15
17950;BME280;9100;48.700;9.316;2022-09-03T03:22:46;97378.9;;;18.03;84.185
17950;BME280;9100;48.700;9.316;2022-09-03T03:23:46;97369.5;;;18.02;84.28
17950;BME280;9100;48.700;9.316;2022-09-03T03:24:46;97375.8;;;18.01;84.344
17950;BME280;9100;48.700;9.316;2022-09-03T03:25:46;97373.90000000001;;;18.02;84.453
17950;BME280;9100;48.700;9.316;2022-09-03T03:26:46;97374.2;;;18;84.817
17950;BME280;9100;48.700;9.316;2022-09-03T03:27:38;97369.2;;;17.99;84.803
17950;BME280;9100;48.700;9.316;2022-09-03T03:27:46;97371.8;;;17.99;84.803
17950;BME280;9100;48.700;9.316;2022-09-03T03:28:47;97367.7;;;17.98;85.084
17950;BME280;9100;48.700;9.316;2022-09-03T03:29:46;97374.7;;;17.97;85.288
17950;BME280;9100;48.700;9.316;2022-09-03T03:30:46;97377.5;;;17.96;85.361
17950;BME280;9100;48.700;9.316;2022-09-03T03:31:46;97383.4;;;17.96;85.557
17950;BME280;9100;48.700;9.316;2022-09-03T03:32:38;97380.8;;;17.96;85.849
17950;BME280;9100;48.700;9.316;2022-09-03T03:32:46;97380;;;17.96;85.838
17950;BME280;9100;48.700;9.316;2022-09-03T03:33:49;97374.90000000001;;;17.96;86.021
17950;BME280;9100;48.700;9.316;2022-09-03T03:34:46;97381.3;;;17.93;86.231
17950;BME280;9100;48.700;9.316;2022-09-03T03:35:46;97377.09999999999;;;17.92;86.498
17950;BME280;9100;48.700;9.316;2022-09-03T03:36:46;97382.3;;;17.92;86.888
17950;BME280;9100;48.700;9.316;2022-09-03T03:37:38;97377.59999999999;;;17.89;87.003
17950;BME280;9100;48.700;9.316;2022-09-03T03:37:46;97378.4;;;17.89;87.057
17950;BME280;9100;48.700;9.316;2022-09-03T03:38:46;97378.4;;;17.89;87.295
17950;BME280;9100;48.700;9.316;2022-09-03T03:39:46;97382;;;17.88;87.52
17950;BME280;9100;48.700;9.316;2022-09-03T03:40:46;97374.5;;;17.87;88.005
17950;BME280;9100;48.700;9.316;2022-09-03T03:41:46;97368.5;;;17.86;88.067
17950;BME280;9100;48.700;9.316;2022-09-03T03:42:38;97378.09999999999;;;17.86;88.271
17950;BME280;9100;48.700;9.316;2022-09-03T03:42:46;97371.3;;;17.85;88.282
17950;BME280;9100;48.700;9.316;2022-09-03T03:43:46;97373.90000000001;;;17.85;88.585
17950;BME280;9100;48.700;9.316;2022-09-03T03:44:46;97379.1;;;17.85;88.758
17950;BME280;9100;48.700;9.316;2022-09-03T03:45:54;97377.5;;;17.84;88.872
17950;BME280;9100;48.700;9.316;2022-09-03T03:46:46;97380.1;;;17.84;89.121
17950;BME280;9100;48.700;9.316;2022-09-03T03:47:38;97376.2;;;17.81;89.345
17950;BME280;9100;48.700;9.316;2022-09-03T03:47:46;97377;;;17.82;89.398
17950;BME280;9100;48.700;9.316;2022-09-03T03:48:46;97378;;;17.81;89.667
17950;BME280;9100;48.700;9.316;2022-09-03T03:49:46;97379;;;17.8;89.989
17950;BME280;9100;48.700;9.316;2022-09-03T03:50:46;97381;;;17.78;90.353
17950;BME280;9100;48.700;9.316;2022-09-03T03:51:46;97374.3;;;17.77;90.718
17950;BME280;9100;48.700;9.316;2022-09-03T03:52:38;97377.09999999999;;;17.75;91.027
17950;BME280;9100;48.700;9.316;2022-09-03T03:52:46;97378.7;;;17.76;91.075
17950;BME280;9100;48.700;9.316;2022-09-03T03:53:46;97384.6;;;17.77;91.453
17950;BME280;9100;48.700;9.316;2022-09-03T03:54:46;97384.6;;;17.77;91.702
17950;BME280;9100;48.700;9.316;2022-09-03T03:55:52;97387.2;;;17.77;91.961
17950;BME280;9100;48.700;9.316;2022-09-03T03:56:46;97391.6;;;17.76;92.448
17950;BME280;9100;48.700;9.316;2022-09-03T03:57:38;97389;;;17.76;92.653
17950;BME280;9100;48.700;9.316;2022-09-03T03:57:46;97384.90000000001;;;17.75;92.692
17950;BME280;9100;48.700;9.316;2022-09-03T03:58:46;97387.2;;;17.77;92.869
17950;BME280;9100;48.700;9.316;2022-09-03T03:59:46;97395;;;17.77;93.031
17950;BME280;9100;48.700;9.316;2022-09-03T04:00:46;97392.4;;;17.77;92.999
17950;BME280;9100;48.700;9.316;2022-09-03T04:01:46;97395.2;;;17.75;93.352
17950;BME280;9100;48.700;9.316;2022-09-03T04:02:38;97400.09999999999;;;17.77;93.183
17950;BME280;9100;48.700;9.316;2022-09-03T04:02:46;97387.2;;;17.77;93.193
17950;BME280;9100;48.700;9.316;2022-09-03T04:03:47;97386.2;;;17.78;93.261
17950;BME280;9100;48.700;9.316;2022-09-03T04:04:46;97392.6;;;17.75;93.266
17950;BME280;9100;48.700;9.316;2022-09-03T04:05:53;97386.7;;;17.75;93.243
17950;BME280;9100;48.700;9.316;2022-09-03T04:06:46;97388.2;;;17.76;93.44
17950;BME280;9100;48.700;9.316;2022-09-03T04:07:38;97394.4;;;17.75;93.601
17950;BME280;9100;48.700;9.316;2022-09-03T04:07:46;97393.6;;;17.74;93.622
17950;BME280;9100;48.700;9.316;2022-09-03T04:08:47;97389.3;;;17.75;93.784
17950;BME280;9100;48.700;9.316;2022-09-03T04:09:46;97390.3;;;17.74;94.333
17950;BME280;9100;48.700;9.316;2022-09-03T04:10:46;97379.1;;;17.73;94.817
17950;BME280;9100;48.700;9.316;2022-09-03T04:11:46;97376;;;17.71;95.311
17950;BME280;9100;48.700;9.316;2022-09-03T04:12:38;97379.6;;;17.7;95.644
17950;BME280;9100;48.700;9.316;2022-09-03T04:12:46;97385.5;;;17.71;95.754
17950;BME280;9100;48.700;9.316;2022-09-03T04:13:46;97382.2;;;17.7;96.195
17950;BME280;9100;48.700;9.316;2022-09-03T04:14:46;97380.4;;;17.71;96.673
17950;BME280;9100;48.700;9.316;2022-09-03T04:15:46;97382.2;;;17.7;96.876
17950;BME280;9100;48.700;9.316;2022-09-03T04:16:46;97381.4;;;17.7;97.124
17950;BME280;9100;48.700;9.316;2022-09-03T04:17:38;97382.4;;;17.69;97.414
17950;BME280;9100;48.700;9.316;2022-09-03T04:17:46;97379;;;17.68;97.466
17950;BME280;9100;48.700;9.316;2022-09-03T04:18:46;97384;;;17.7;98.075
17950;BME280;9100;48.700;9.316;2022-09-03T04:19:46;97389.09999999999;;;17.7;98.151
17950;BME280;9100;48.700;9.316;2022-09-03T04:20:46;97386.5;;;17.7;98.399
17950;BME280;9100;48.700;9.316;2022-09-03T04:21:46;97386;;;17.68;99.033
17950;BME280;9100;48.700;9.316;2022-09-03T04:22:38;97378.5;;;17.66;99.418
17950;BME280;9100;48.700;9.316;2022-09-03T04:22:46;97381.8;;;17.67;99.312
17950;BME280;9100;48.700;9.316;2022-09-03T04:23:47;97376.70000000001;;;17.67;99.463
17950;BME280;9100;48.700;9.316;2022-09-03T04:24:46;97377.70000000001;;;17.66;99.894